KBVO/BVO METAR and TAF weather

Enter ICAO airport designator
Station Type Date Time Source
KBVO METAR 2022/01/19 19:53 UTC NOAA

KBVO 191953Z AUTO 02022G34KT 10SM FEW120 00/M11 A3025 RMK AO2 PK WND 01035/1927 SLP246 T00001111


Station Type Date Time Source
KBVO Decoded METAR 2022/01/19 19:53 UTC NOAA

BARTLESVILLE MUNICIPAL AIRPORT , OK, United States (KBVO) 36-46N 96-01W 210M
Jan 19, 2022 - 02:53 PM EST / 2022.01.19 1953 UTC
Wind: from the NNE (020 degrees) at 25 MPH (22 KT) gusting to 39 MPH (34 KT):0
Visibility: 10 mile(s):0
Sky conditions: mostly clear
Temperature: 32.0 F (0.0 C)
Windchill: 19 F (-7 C):1
Dew Point: 12.0 F (-11.1 C)
Relative Humidity: 42%
Pressure (altimeter): 30.25 in. Hg (1024 hPa)
ob: KBVO 191953Z AUTO 02022G34KT 10SM FEW120 00/M11 A3025 RMK AO2 PK WND 01035/1927 SLP246 T00001111
cycle: 20

Station Type Date Time Source
KBVO TAF 2022/01/19 18:22 UTC NOAA

TAF KBVO 191720Z 1918/2018 01020G30KT P6SM SCT100 BKN250
FM200100 01014KT P6SM BKN100
FM201500 36010KT P6SM BKN100

Example: see airport list